Time;durP1;ratioP1;P1;durP2;ratioP2;P2;SDS_P1;SDS_P2;PMS_P1;PMS_P2;Temp;Humidity;BMP_temperature;BMP_pressure;BME280_temperature;BME280_humidity;BME280_pressure;Samples;Min_cycle;Max_cycle;Signal;HPM_P1;HPM_P2
2022/09/02 00:01:57;;;;;;;;;7.00;7.00;;;;;25.13;49.13;100992.47;5019730;28;45506;-76
2022/09/02 00:04:24;;;;;;;;;7.67;7.67;;;;;25.10;48.75;100979.09;4967119;28;46822;-74
2022/09/02 00:06:51;;;;;;;;;8.33;7.00;;;;;25.13;48.72;100982.53;5015090;28;46635;-76
2022/09/02 00:09:20;;;;;;;;;8.00;8.00;;;;;25.14;48.30;100978.00;5018681;28;45524;-77
2022/09/02 00:11:51;;;;;;;;;7.33;7.33;;;;;25.13;48.34;100974.41;5024826;28;45596;-75
2022/09/02 00:14:24;;;;;;;;;11.00;9.00;;;;;25.11;48.30;100970.03;5021911;28;45673;-76
2022/09/02 00:16:55;;;;;;;;;10.00;10.00;;;;;25.10;48.78;100969.19;5017844;28;47350;-74
2022/09/02 00:19:23;;;;;;;;;8.00;6.00;;;;;25.08;48.28;100969.22;5013338;28;45327;-75
2022/09/02 00:21:50;;;;;;;;;7.67;7.00;;;;;25.05;48.87;100958.53;5018736;28;45365;-75
2022/09/02 00:24:16;;;;;;;;;9.00;8.00;;;;;25.03;48.53;100959.56;5035784;28;45448;-75
2022/09/02 00:26:43;;;;;;;;;8.33;8.00;;;;;25.04;48.75;100961.31;5018120;28;47250;-76
2022/09/02 00:29:09;;;;;;;;;8.67;7.00;;;;;25.04;48.71;100961.31;5018083;28;45373;-76
2022/09/02 00:31:35;;;;;;;;;9.00;7.67;;;;;25.02;48.38;100960.50;5003969;28;45354;-76
2022/09/02 00:34:02;;;;;;;;;8.33;8.00;;;;;24.99;49.18;100953.44;5018304;28;45979;-75
2022/09/02 00:36:27;;;;;;;;;9.00;9.00;;;;;24.99;48.44;100952.56;5018411;28;46552;-75
2022/09/02 00:41:12;;;;;;;;;8.33;7.67;;;;;24.90;49.06;100943.06;5111392;27;45293;-78
2022/09/02 00:43:42;;;;;;;;;10.67;9.00;;;;;24.88;48.69;100939.56;5083376;27;45530;-77
2022/09/02 00:46:09;;;;;;;;;9.00;8.00;;;;;24.85;49.12;100945.09;5083811;27;45356;-76
2022/09/02 00:48:37;;;;;;;;;7.33;6.33;;;;;24.83;49.49;100941.59;5091224;27;45466;-76
2022/09/02 00:51:03;;;;;;;;;10.67;8.00;;;;;24.85;48.97;100949.63;5074157;27;46114;-77
2022/09/02 00:53:28;;;;;;;;;9.67;9.67;;;;;24.84;49.06;100943.34;5072954;27;45442;-76
2022/09/02 00:55:54;;;;;;;;;8.67;8.00;;;;;24.84;49.51;100940.63;5078464;27;45546;-76
2022/09/02 00:58:26;;;;;;;;;9.67;9.67;;;;;24.85;49.35;100945.09;5095431;27;61383;-76
2022/09/02 01:00:56;;;;;;;;;7.67;7.67;;;;;24.82;49.39;100935.31;5086404;27;45976;-76
2022/09/02 01:03:24;;;;;;;;;8.67;8.67;;;;;24.83;49.73;100944.28;5061605;27;45659;-76
2022/09/02 01:05:51;;;;;;;;;9.00;8.00;;;;;24.84;49.59;100948.75;5069123;27;45461;-76
2022/09/02 01:08:20;;;;;;;;;7.00;7.00;;;;;24.79;49.49;100938.16;5071777;27;45528;-76
2022/09/02 01:10:46;;;;;;;;;9.67;8.67;;;;;24.79;49.58;100939.97;5073436;27;46538;-77
2022/09/02 01:13:16;;;;;;;;;9.67;9.00;;;;;24.78;50.19;100936.41;5083315;27;45436;-76
2022/09/02 01:15:45;;;;;;;;;11.00;9.33;;;;;24.78;49.78;100944.50;5058174;27;45446;-77
2022/09/02 01:18:16;;;;;;;;;8.33;8.33;;;;;24.76;50.00;100938.28;5077418;27;45627;-77
2022/09/02 01:20:41;;;;;;;;;10.00;8.67;;;;;24.74;50.83;100936.59;5092262;27;46394;-77
2022/09/02 01:23:07;;;;;;;;;9.00;9.00;;;;;24.72;50.70;100934.00;5061997;27;45427;-76
2022/09/02 01:25:33;;;;;;;;;9.33;9.00;;;;;24.70;50.78;100925.06;5069693;27;51804;-76
2022/09/02 01:28:08;;;;;;;;;9.33;7.67;;;;;24.70;50.24;100927.75;5069324;27;45561;-77
2022/09/02 01:30:35;;;;;;;;;9.00;8.00;;;;;24.67;50.89;100925.22;5071956;27;46202;-77
2022/09/02 01:33:01;;;;;;;;;10.67;9.00;;;;;24.67;51.06;100930.63;5065411;27;45488;-77
2022/09/02 01:35:26;;;;;;;;;9.67;9.33;;;;;24.66;51.01;100928.88;5055168;28;55748;-76
2022/09/02 01:37:55;;;;;;;;;11.33;9.67;;;;;24.67;50.72;100929.75;5086417;27;45418;-78
2022/09/02 01:40:20;;;;;;;;;12.67;10.00;;;;;24.66;50.68;100936.06;5074158;27;45952;-76
2022/09/02 01:42:46;;;;;;;;;7.33;7.33;;;;;24.62;51.38;100932.66;5081926;27;45481;-78
2022/09/02 01:45:12;;;;;;;;;7.67;7.67;;;;;24.61;51.54;100928.22;5067322;27;45371;-76
2022/09/02 01:47:38;;;;;;;;;11.33;9.33;;;;;24.60;51.13;100936.34;5077290;27;45438;-78
2022/09/02 01:50:05;;;;;;;;;9.00;9.00;;;;;24.59;51.56;100929.22;5090732;27;57824;-76
2022/09/02 01:52:31;;;;;;;;;9.00;9.00;;;;;24.58;51.45;100930.16;5059599;27;45353;-77
2022/09/02 01:54:57;;;;;;;;;12.67;8.00;;;;;24.58;51.92;100919.38;5059882;27;45508;-77
2022/09/02 01:57:23;;;;;;;;;11.00;9.67;;;;;24.56;51.98;100928.41;5057545;28;45462;-76
2022/09/02 01:59:49;;;;;;;;;8.33;8.33;;;;;24.57;51.76;100934.69;5048348;27;46400;-76
2022/09/02 02:02:18;;;;;;;;;9.00;9.00;;;;;24.55;51.64;100958.16;5050415;28;45307;-78
2022/09/02 02:04:44;;;;;;;;;13.33;9.33;;;;;24.52;51.93;101005.09;5063582;27;45561;-76
2022/09/02 02:07:11;;;;;;;;;9.00;9.00;;;;;24.47;51.60;100982.81;5062037;27;45467;-77
2022/09/02 02:09:37;;;;;;;;;8.00;8.00;;;;;24.47;51.76;100944.16;5065526;28;45842;-77
2022/09/02 02:12:03;;;;;;;;;9.67;8.67;;;;;24.49;51.98;100990.84;5051694;27;45684;-77
2022/09/02 02:14:29;;;;;;;;;7.00;7.00;;;;;24.47;52.05;100992.75;5053762;28;45331;-77
2022/09/02 02:16:54;;;;;;;;;12.00;10.33;;;;;24.44;52.74;100966.75;5063638;27;45580;-77
2022/09/02 02:19:20;;;;;;;;;10.33;8.33;;;;;24.42;55.80;100992.94;5065629;27;48226;-77
2022/09/02 02:21:45;;;;;;;;;12.00;10.33;;;;;24.36;58.32;100997.72;5073580;27;62487;-76
2022/09/02 02:24:11;;;;;;;;;10.33;10.33;;;;;24.26;59.32;100979.19;5084142;27;59798;-77
2022/09/02 02:26:36;;;;;;;;;13.00;13.00;;;;;24.15;61.40;100978.78;5046670;28;45649;-77
2022/09/02 02:29:02;;;;;;;;;12.67;12.00;;;;;24.06;63.91;100976.47;5045034;27;45821;-76
2022/09/02 02:31:27;;;;;;;;;11.00;11.00;;;;;23.96;67.62;100977.81;5051876;28;45498;-77
2022/09/02 02:33:53;;;;;;;;;12.00;12.00;;;;;23.88;70.30;100997.03;5053911;27;56645;-77
2022/09/02 02:36:18;;;;;;;;;16.00;16.00;;;;;23.75;69.30;100988.53;5048747;28;45725;-76
2022/09/02 02:38:45;;;;;;;;;19.33;18.67;;;;;23.65;69.88;100988.97;5067897;27;45702;-76
2022/09/02 02:41:12;;;;;;;;;18.33;17.00;;;;;23.60;71.29;100989.16;5086253;27;45367;-76
2022/09/02 02:43:38;;;;;;;;;21.33;17.33;;;;;23.55;72.33;100987.59;5077985;27;45411;-76
2022/09/02 02:46:05;;;;;;;;;20.33;19.67;;;;;23.50;73.32;100990.47;5067775;27;45536;-78
2022/09/02 02:48:30;;;;;;;;;22.67;19.33;;;;;23.41;75.75;100986.31;5061336;28;46712;-76
2022/09/02 02:50:56;;;;;;;;;23.33;22.00;;;;;23.32;76.06;100983.97;5060417;28;45324;-77
2022/09/02 02:53:21;;;;;;;;;27.00;23.67;;;;;23.26;75.65;100982.41;5054109;27;59238;-77
2022/09/02 02:55:46;;;;;;;;;27.67;26.00;;;;;23.20;76.54;100979.94;5067259;28;45434;-76
2022/09/02 02:58:12;;;;;;;;;22.67;21.33;;;;;23.17;77.00;100980.09;5083397;27;46498;-77
2022/09/02 03:00:37;;;;;;;;;27.33;24.00;;;;;23.08;77.66;100966.97;5059128;28;46367;-76
2022/09/02 03:03:07;;;;;;;;;18.33;18.33;;;;;23.07;78.18;100964.34;5059612;28;52189;-76
2022/09/02 03:05:35;;;;;;;;;16.67;16.00;;;;;23.03;78.88;100965.38;5087584;27;45557;-77
2022/09/02 03:08:02;;;;;;;;;19.00;17.33;;;;;22.98;79.21;100966.44;5073162;27;45922;-77
2022/09/02 03:10:28;;;;;;;;;19.00;19.00;;;;;22.93;79.57;100954.97;5064299;27;46469;-76
2022/09/02 03:12:53;;;;;;;;;15.67;15.67;;;;;22.89;80.41;100952.44;5058309;28;45254;-76
2022/09/02 03:15:19;;;;;;;;;19.33;15.33;;;;;22.87;80.88;100949.78;5072083;27;57253;-76
2022/09/02 03:17:46;;;;;;;;;17.67;16.00;;;;;22.85;81.70;100948.97;5074839;27;46474;-76
2022/09/02 03:20:14;;;;;;;;;17.67;16.67;;;;;22.83;81.77;100940.06;5044979;27;45514;-77
2022/09/02 03:22:41;;;;;;;;;15.00;13.33;;;;;22.80;82.37;100939.28;5052349;28;45474;-76
2022/09/02 03:25:08;;;;;;;;;17.33;14.33;;;;;22.78;82.54;100947.41;5035772;28;45894;-77
2022/09/02 03:27:36;;;;;;;;;19.00;18.33;;;;;22.72;83.01;100934.19;5060168;28;48367;-76
2022/09/02 03:30:02;;;;;;;;;14.00;14.00;;;;;22.69;83.56;100945.97;5059855;28;45287;-77
2022/09/02 03:32:27;;;;;;;;;15.00;13.00;;;;;;;;5060615;27;45557;-76
2022/09/02 03:34:53;;;;;;;;;13.33;13.33;;;;;22.64;83.30;100944.41;5061182;27;45546;-77
2022/09/02 03:37:19;;;;;;;;;16.00;13.33;;;;;22.64;83.61;100947.09;5052946;27;46790;-78
2022/09/02 03:39:45;;;;;;;;;15.00;15.00;;;;;22.63;84.14;100945.31;5056542;28;46056;-77
2022/09/02 03:42:11;;;;;;;;;13.33;13.33;;;;;22.61;84.39;100939.09;5056687;28;45410;-77
2022/09/02 03:44:39;;;;;;;;;16.67;15.00;;;;;22.60;84.42;100935.53;5064920;28;45471;-77
2022/09/02 03:47:04;;;;;;;;;14.33;12.67;;;;;22.60;84.53;100935.53;5059031;28;46673;-75
2022/09/02 03:49:29;;;;;;;;;11.67;11.00;;;;;22.57;85.70;100924.00;5054148;28;45481;-76
2022/09/02 03:51:55;;;;;;;;;12.67;12.00;;;;;22.54;85.29;100916.94;5059000;28;45928;-77
2022/09/02 03:54:20;;;;;;;;;11.33;11.33;;;;;22.56;86.19;100915.06;5047802;28;45613;-77
2022/09/02 03:56:46;;;;;;;;;11.33;11.33;;;;;22.55;86.17;100912.44;5048787;28;57143;-76
2022/09/02 03:59:11;;;;;;;;;12.00;12.00;;;;;22.54;86.52;100918.75;5038330;28;60451;-76
2022/09/02 04:01:36;;;;;;;;;10.00;9.33;;;;;22.54;86.71;100922.31;5051534;28;45470;-75
2022/09/02 04:04:04;;;;;;;;;14.00;12.00;;;;;22.53;87.02;100914.28;5053049;28;50744;-77
2022/09/02 04:06:29;;;;;;;;;11.67;11.00;;;;;22.52;87.51;100916.09;5053599;28;46402;-78
2022/09/02 04:08:55;;;;;;;;;13.00;13.00;;;;;22.54;87.81;100919.63;5058718;28;45375;-76
2022/09/02 04:11:21;;;;;;;;;12.67;12.67;;;;;22.54;87.87;100929.53;5050151;28;61714;-77
2022/09/02 04:13:48;;;;;;;;;13.67;12.00;;;;;22.51;88.60;100913.47;5062397;28;45522;-75
2022/09/02 04:16:16;;;;;;;;;14.33;13.00;;;;;22.51;88.72;100916.16;5055161;28;45454;-77
2022/09/02 04:18:42;;;;;;;;;11.00;11.00;;;;;22.51;89.64;100921.53;5059745;28;45597;-76
2022/09/02 04:21:08;;;;;;;;;13.67;13.00;;;;;22.49;89.84;100911.72;5058228;28;45419;-77
2022/09/02 04:23:33;;;;;;;;;18.00;14.00;;;;;22.48;90.31;100909.09;5060062;28;45414;-77
2022/09/02 04:26:04;;;;;;;;;14.67;12.00;;;;;22.44;90.81;100894.00;5055405;27;46498;-77
2022/09/02 04:28:29;;;;;;;;;12.00;12.00;;;;;22.44;91.44;100902.06;5038820;28;46717;-75
2022/09/02 04:30:54;;;;;;;;;12.33;12.33;;;;;22.43;91.44;100897.63;5043327;28;60555;-77
2022/09/02 04:33:20;;;;;;;;;15.33;14.33;;;;;22.43;91.95;100906.56;5057999;28;48853;-77
2022/09/02 04:35:47;;;;;;;;;16.00;14.67;;;;;22.43;94.18;100911.06;5056326;28;59225;-75
2022/09/02 04:38:14;;;;;;;;;15.67;12.33;;;;;22.38;96.66;100905.00;5040452;28;45357;-76
2022/09/02 04:40:44;;;;;;;;;13.00;13.00;;;;;22.33;97.56;100898.91;5219326;22;45551;-75
2022/09/02 04:43:10;;;;;;;;;16.33;13.00;;;;;22.32;98.16;100894.41;5090010;27;45629;-75
2022/09/02 04:45:43;;;;;;;;;18.67;14.33;;;;;22.31;100.00;100908.81;5093770;27;45511;-75
2022/09/02 04:48:09;;;;;;;;;16.67;15.67;;;;;22.26;100.00;100914.34;5091152;27;45676;-76
2022/09/02 04:50:36;;;;;;;;;18.00;17.00;;;;;22.20;100.00;100925.34;5095272;27;45469;-76
2022/09/02 04:53:02;;;;;;;;;17.00;15.67;;;;;22.14;100.00;100922.88;5089840;27;45336;-76
2022/09/02 04:55:28;;;;;;;;;14.00;14.00;;;;;22.10;100.00;100926.56;5096588;27;45828;-76
2022/09/02 04:57:53;;;;;;;;;18.00;18.00;;;;;22.10;100.00;100923.88;5095721;27;50192;-75
2022/09/02 05:00:18;;;;;;;;;18.33;17.33;;;;;22.06;100.00;100909.69;5095259;27;56510;-75
2022/09/02 05:02:45;;;;;;;;;17.33;17.00;;;;;22.01;100.00;100902.72;5095455;27;45681;-76
2022/09/02 05:05:11;;;;;;;;;19.67;18.33;;;;;21.94;100.00;100891.25;5094101;27;46529;-77
2022/09/02 05:07:37;;;;;;;;;21.33;18.67;;;;;21.89;100.00;100890.53;5096809;27;45353;-77
2022/09/02 05:10:04;;;;;;;;;15.67;15.33;;;;;21.84;100.00;100879.97;5096034;27;63584;-75
2022/09/02 05:12:34;;;;;;;;;17.33;15.33;;;;;21.79;100.00;100881.06;5076859;27;45474;-75
2022/09/02 05:15:00;;;;;;;;;17.67;16.33;;;;;21.73;100.00;100884.81;5094971;27;46421;-76
2022/09/02 05:17:27;;;;;;;;;19.33;18.00;;;;;21.68;100.00;100879.63;5095449;27;45539;-75
2022/09/02 05:19:53;;;;;;;;;17.33;15.67;;;;;21.63;100.00;100886.09;5095297;27;45392;-76
2022/09/02 05:22:19;;;;;;;;;15.67;15.67;;;;;21.62;100.00;100893.25;5109157;27;45535;-75
2022/09/02 05:24:45;;;;;;;;;17.33;17.33;;;;;21.60;100.00;100896.94;5082748;27;45779;-75
2022/09/02 05:27:11;;;;;;;;;16.00;14.67;;;;;21.56;100.00;100893.47;5095731;27;45536;-76
2022/09/02 05:29:37;;;;;;;;;16.67;15.33;;;;;21.53;100.00;100890.88;5098405;27;45373;-75
2022/09/02 05:32:03;;;;;;;;;20.67;19.67;;;;;21.52;100.00;100888.22;5097875;27;46535;-76
2022/09/02 05:34:29;;;;;;;;;18.00;16.00;;;;;21.51;100.00;100892.72;5097025;27;46355;-76
2022/09/02 05:36:54;;;;;;;;;16.67;16.33;;;;;21.49;100.00;100899.09;5094338;27;45457;-76
2022/09/02 05:39:20;;;;;;;;;19.00;17.33;;;;;21.48;100.00;100908.97;5094699;27;57608;-76
2022/09/02 05:41:45;;;;;;;;;15.67;14.00;;;;;21.45;100.00;100898.31;5099495;27;45159;-76
2022/09/02 05:44:10;;;;;;;;;17.00;17.00;;;;;21.45;100.00;100901.88;5098212;27;45736;-79
2022/09/02 05:46:36;;;;;;;;;15.67;15.67;;;;;21.48;100.00;100897.34;5093263;27;55411;-79
2022/09/02 05:49:05;;;;;;;;;16.33;15.00;;;;;21.47;100.00;100892.91;5096152;27;45494;-79
2022/09/02 05:51:42;;;;;;;;;17.33;17.33;;;;;21.46;100.00;100889.31;5097744;27;45422;-79
2022/09/02 05:54:29;;;;;;;;;27.33;24.33;;;;;21.49;100.00;100882.97;5080330;27;48273;-81
2022/09/02 05:56:57;;;;;;;;;30.00;29.00;;;;;21.44;100.00;100880.44;5097804;27;45475;-79
2022/09/02 05:59:24;;;;;;;;;33.00;30.00;;;;;21.45;100.00;100879.50;5088802;27;45569;-84
2022/09/02 06:01:49;;;;;;;;;28.75;23.25;;;;;21.45;100.00;100888.44;5074078;27;45571;-77
2022/09/02 06:04:16;;;;;;;;;21.33;21.33;;;;;21.43;100.00;100882.25;5096746;27;46445;-75
2022/09/02 06:06:42;;;;;;;;;26.00;26.00;;;;;21.42;100.00;100887.69;5094055;27;45519;-75
2022/09/02 06:09:12;;;;;;;;;17.33;16.33;;;;;21.36;100.00;100883.41;5092189;27;46564;-75
2022/09/02 06:11:41;;;;;;;;;19.33;19.33;;;;;21.38;100.00;100904.81;5094835;27;45650;-75
2022/09/02 06:14:07;;;;;;;;;17.67;17.00;;;;;21.38;100.00;100894.94;5091405;27;47002;-77
2022/09/02 06:16:32;;;;;;;;;23.00;18.67;;;;;21.35;100.00;100886.97;5094366;27;57770;-76
2022/09/02 06:18:58;;;;;;;;;17.67;17.67;;;;;21.34;100.00;100890.59;5094520;27;45541;-79
2022/09/02 06:21:23;;;;;;;;;19.00;17.67;;;;;21.29;100.00;100892.53;5095160;27;45739;-83
2022/09/02 06:23:49;;;;;;;;;16.33;16.33;;;;;21.23;100.00;100881.97;5113393;27;48468;-77
2022/09/02 06:26:16;;;;;;;;;14.67;14.67;;;;;21.22;100.00;100892.78;5109152;27;45520;-77
2022/09/02 06:28:42;;;;;;;;;15.00;15.00;;;;;21.20;100.00;100898.22;5092005;27;45525;-79
2022/09/02 06:31:09;;;;;;;;;14.67;13.67;;;;;21.19;100.00;100888.38;5089657;27;45589;-80
2022/09/02 06:33:36;;;;;;;;;16.33;15.00;;;;;21.16;100.00;100880.44;5076586;27;48428;-80
2022/09/02 06:36:05;;;;;;;;;14.67;13.33;;;;;21.14;100.00;100891.19;5076133;28;46091;-80
2022/09/02 06:38:30;;;;;;;;;17.67;16.33;;;;;21.13;100.00;100894.81;5076588;27;45593;-79
2022/09/02 06:40:55;;;;;;;;;14.33;13.33;;;;;21.12;100.00;100897.56;5076979;27;51647;-80
2022/09/02 06:43:21;;;;;;;;;13.67;13.67;;;;;21.13;100.00;100910.94;5095846;27;46480;-80
2022/09/02 06:45:46;;;;;;;;;17.67;14.67;;;;;21.13;100.00;100905.56;5078153;27;68166;-79
2022/09/02 06:48:12;;;;;;;;;14.33;12.00;;;;;21.15;100.00;100905.53;5078240;27;45439;-77
2022/09/02 06:50:42;;;;;;;;;16.33;13.33;;;;;21.21;100.00;100907.16;5095655;27;45438;-77
2022/09/02 06:53:08;;;;;;;;;15.33;14.33;;;;;21.26;100.00;100898.00;5094358;27;45588;-78
2022/09/02 06:55:35;;;;;;;;;14.67;14.67;;;;;21.29;100.00;100897.91;5093939;27;45680;-79
2022/09/02 06:58:01;;;;;;;;;13.33;13.33;;;;;21.32;100.00;100887.09;5076028;27;45438;-77
2022/09/02 07:00:26;;;;;;;;;13.33;12.33;;;;;21.36;100.00;100877.13;5092139;27;45564;-75
2022/09/02 07:05:08;;;;;;;;;16.00;15.33;;;;;21.39;100.00;100883.28;5087473;27;45647;-79
2022/09/02 07:05:38;;;;;;;;;13.67;13.67;;;;;21.39;100.00;100875.22;5089927;27;45613;-78
2022/09/02 07:08:04;;;;;;;;;14.67;14.67;;;;;21.40;100.00;100878.78;5110846;27;45555;-79
2022/09/02 07:10:29;;;;;;;;;15.33;14.33;;;;;21.41;100.00;100881.44;5094304;27;59748;-78
2022/09/02 07:12:54;;;;;;;;;14.67;14.67;;;;;21.45;100.00;100877.69;5066113;27;68664;-80
2022/09/02 07:15:20;;;;;;;;;14.33;13.00;;;;;21.47;100.00;100880.34;5084081;27;56181;-79
2022/09/02 07:17:45;;;;;;;;;13.00;13.00;;;;;21.51;100.00;100894.53;5094091;27;54842;-80
2022/09/02 07:20:11;;;;;;;;;13.67;11.67;;;;;21.52;100.00;100890.91;5093796;27;45645;-79
2022/09/02 07:22:37;;;;;;;;;16.33;16.33;;;;;21.55;100.00;100889.03;5076359;27;47342;-80
2022/09/02 07:25:03;;;;;;;;;16.00;13.00;;;;;21.59;100.00;100892.50;5094346;27;45399;-80
2022/09/02 07:27:29;;;;;;;;;12.67;12.67;;;;;21.61;100.00;100880.75;5094925;27;45555;-79
2022/09/02 07:29:55;;;;;;;;;13.33;12.67;;;;;21.64;100.00;100872.59;5079037;27;45486;-80
2022/09/02 07:32:20;;;;;;;;;14.00;14.00;;;;;21.70;100.00;100871.50;5095104;27;46561;-80
2022/09/02 07:34:46;;;;;;;;;13.33;13.33;;;;;21.78;100.00;100863.16;5095456;27;45491;-79
2022/09/02 07:37:11;;;;;;;;;11.67;11.67;;;;;21.83;100.00;100859.38;5090751;27;45556;-81
2022/09/02 07:39:37;;;;;;;;;11.33;11.33;;;;;21.90;100.00;100863.63;5078610;27;45598;-78
2022/09/02 07:42:03;;;;;;;;;12.67;12.67;;;;;22.00;100.00;100876.72;5093914;27;47680;-81
2022/09/02 07:44:28;;;;;;;;;18.33;15.00;;;;;22.07;100.00;100876.47;5073937;27;46050;-79
2022/09/02 07:46:54;;;;;;;;;15.33;14.00;;;;;22.12;100.00;100877.22;5108114;27;62745;-79
2022/09/02 07:49:20;;;;;;;;;18.00;14.67;;;;;22.15;100.00;100885.16;5074035;27;45397;-78
2022/09/02 07:51:50;;;;;;;;;18.33;17.00;;;;;22.16;100.00;100884.25;5093160;27;48254;-80
2022/09/02 07:54:18;;;;;;;;;14.33;14.33;;;;;22.18;100.00;100889.56;5092853;27;45527;-79
2022/09/02 07:56:44;;;;;;;;;18.00;17.67;;;;;22.20;100.00;100888.56;5084471;27;45496;-81
2022/09/02 07:59:09;;;;;;;;;16.00;16.00;;;;;22.21;100.00;100889.44;5092495;27;45488;-79
2022/09/02 08:01:36;;;;;;;;;15.00;15.00;;;;;22.22;100.00;100896.59;5093937;27;47438;-80
2022/09/02 08:04:02;;;;;;;;;13.00;12.00;;;;;22.20;100.00;100896.63;5088551;27;45465;-81
2022/09/02 08:06:27;;;;;;;;;22.33;19.00;;;;;22.20;100.00;100898.44;5089984;27;45604;-81
2022/09/02 08:08:54;;;;;;;;;14.33;14.33;;;;;22.19;100.00;100896.69;5073629;27;47101;-80
2022/09/02 08:11:20;;;;;;;;;15.33;12.33;;;;;22.16;100.00;100903.06;5087988;27;45782;-79
2022/09/02 08:13:46;;;;;;;;;17.67;14.33;;;;;22.13;100.00;100907.66;5090565;27;45486;-79
2022/09/02 08:16:12;;;;;;;;;13.00;13.00;;;;;22.08;100.00;100905.09;5092925;27;45509;-78
2022/09/02 08:18:37;;;;;;;;;12.67;12.67;;;;;22.05;100.00;100915.09;5071354;27;45571;-81
2022/09/02 08:21:03;;;;;;;;;17.33;14.33;;;;;22.00;100.00;100911.69;5074629;27;47428;-81
2022/09/02 08:23:28;;;;;;;;;13.67;11.67;;;;;22.00;100.00;100933.19;5073527;28;46103;-81
2022/09/02 08:25:54;;;;;;;;;15.00;14.33;;;;;21.96;100.00;100952.13;5072696;27;45364;-82
2022/09/02 08:28:19;;;;;;;;;15.67;15.00;;;;;21.94;100.00;100964.75;5069476;27;45371;-81
2022/09/02 08:30:44;;;;;;;;;12.67;12.67;;;;;21.88;100.00;100975.69;5093073;27;68725;-79
2022/09/02 08:33:10;;;;;;;;;14.00;13.00;;;;;21.85;100.00;100983.88;5094017;27;45855;-79
2022/09/02 08:35:36;;;;;;;;;18.33;17.33;;;;;21.83;100.00;100974.09;5075500;27;45501;-81
2022/09/02 08:38:01;;;;;;;;;15.67;15.00;;;;;21.81;100.00;100970.59;5075875;27;45374;-80
2022/09/02 08:40:40;;;;;;;;;19.33;15.67;;;;;21.81;100.00;100984.91;5092960;27;46495;-79
2022/09/02 08:43:38;;;;;;;;;26.33;19.00;;;;;21.79;100.00;100989.47;5093749;27;45369;-79
2022/09/02 08:46:05;;;;;;;;;14.67;14.33;;;;;21.81;100.00;100992.09;5109199;27;46512;-80
2022/09/02 08:48:53;;;;;;;;;17.67;17.00;;;;;21.84;100.00;100983.91;5070246;27;45397;-81
2022/09/02 08:51:26;;;;;;;;;13.67;13.67;;;;;21.85;100.00;100989.25;5093606;27;47479;-79
2022/09/02 08:54:02;;;;;;;;;15.00;15.00;;;;;21.88;100.00;100985.56;5086226;27;45318;-80
2022/09/02 08:56:27;;;;;;;;;16.67;16.67;;;;;21.86;100.00;100980.25;5095842;27;45465;-80
2022/09/02 08:58:55;;;;;;;;;18.33;18.33;;;;;21.89;100.00;100980.16;5091470;27;45355;-80
2022/09/02 09:01:23;;;;;;;;;19.33;17.67;;;;;21.94;100.00;100979.97;5067476;27;48534;-80
2022/09/02 09:04:09;;;;;;;;;15.00;15.00;;;;;21.96;100.00;100987.09;5101505;27;45502;-80
2022/09/02 09:06:46;;;;;;;;;18.00;16.67;;;;;22.01;100.00;100972.63;5086878;27;45468;-81
2022/09/02 09:09:27;;;;;;;;;17.67;16.67;;;;;22.07;100.00;100975.97;5065341;28;45707;-80
2022/09/02 09:12:16;;;;;;;;;17.33;17.33;;;;;22.16;100.00;100975.69;5094766;27;46120;-80
2022/09/02 09:15:01;;;;;;;;;18.33;18.33;;;;;22.20;100.00;100974.63;5095771;27;45696;-79
2022/09/02 09:17:36;;;;;;;;;18.00;17.33;;;;;22.20;100.00;100971.94;5097538;27;45696;-78
2022/09/02 09:20:10;;;;;;;;;15.67;15.67;;;;;22.22;100.00;100970.09;5095421;27;46281;-79
2022/09/02 09:22:37;;;;;;;;;18.33;17.00;;;;;22.26;100.00;100970.84;5080623;27;48133;-79
2022/09/02 09:25:10;;;;;;;;;16.00;16.00;;;;;22.34;100.00;100962.53;5082045;27;58528;-79
2022/09/02 09:27:35;;;;;;;;;19.00;17.33;;;;;22.39;100.00;100961.41;5075854;27;45557;-79
2022/09/02 09:30:01;;;;;;;;;18.67;17.33;;;;;22.44;100.00;100962.13;5095769;27;45362;-80
2022/09/02 09:32:32;;;;;;;;;17.33;17.33;;;;;22.51;100.00;100945.75;5094322;27;48179;-80
2022/09/02 09:35:07;;;;;;;;;18.67;18.67;;;;;22.58;100.00;100947.28;5073515;27;45553;-78
2022/09/02 09:37:44;;;;;;;;;16.33;14.33;;;;;22.63;100.00;100951.56;5101955;27;45614;-80
2022/09/02 09:40:22;;;;;;;;;23.00;20.00;;;;;22.68;100.00;100954.09;5096534;27;45585;-80
2022/09/02 09:42:54;;;;;;;;;20.67;19.00;;;;;22.74;100.00;100943.09;5086356;27;47559;-81
2022/09/02 09:45:20;;;;;;;;;21.00;18.67;;;;;22.84;100.00;100944.50;5094718;27;45317;-81
2022/09/02 09:48:11;;;;;;;;;16.00;16.00;;;;;22.97;100.00;100942.25;5089727;27;45531;-78
2022/09/02 09:50:36;;;;;;;;;18.67;18.67;;;;;23.13;100.00;100937.16;5094795;27;45595;-81
2022/09/02 09:53:16;;;;;;;;;18.67;17.67;;;;;23.31;100.00;100939.09;5075257;27;45555;-79
2022/09/02 09:56:01;;;;;;;;;17.67;17.67;;;;;23.47;100.00;100939.38;5096620;27;46187;-80
2022/09/02 09:58:33;;;;;;;;;15.00;15.00;;;;;23.55;100.00;100929.16;5079862;27;45354;-80
2022/09/02 10:01:14;;;;;;;;;18.33;16.00;;;;;23.60;100.00;100924.47;5093360;27;45633;-79
2022/09/02 10:03:47;;;;;;;;;16.33;14.67;;;;;23.67;100.00;100927.81;5095703;27;47332;-78
2022/09/02 10:06:24;;;;;;;;;12.67;12.67;;;;;23.73;100.00;100931.13;5095867;27;45557;-79
2022/09/02 10:08:55;;;;;;;;;16.67;15.00;;;;;23.80;100.00;100929.03;5097212;27;45552;-80
2022/09/02 10:11:26;;;;;;;;;15.67;14.67;;;;;23.85;100.00;100928.84;5096905;27;45441;-79
2022/09/02 10:14:00;;;;;;;;;14.33;14.33;;;;;23.92;100.00;100927.66;5097180;27;45539;-80
2022/09/02 10:16:41;;;;;;;;;16.67;16.67;;;;;23.97;99.12;100923.81;5097596;27;45536;-80
2022/09/02 10:19:19;;;;;;;;;16.33;15.33;;;;;24.05;99.14;100913.56;5088192;27;45393;-80
2022/09/02 10:22:02;;;;;;;;;19.33;18.00;;;;;24.13;98.44;100910.53;5096842;27;45469;-80
2022/09/02 10:24:43;;;;;;;;;13.33;13.33;;;;;24.22;98.04;100909.22;5095795;27;47783;-80
2022/09/02 10:27:14;;;;;;;;;19.33;16.33;;;;;24.24;95.59;100904.66;5095721;27;45595;-79
2022/09/02 10:30:03;;;;;;;;;14.67;14.67;;;;;24.27;94.96;100899.13;5077011;28;45299;-81
2022/09/02 10:32:50;;;;;;;;;21.67;20.33;;;;;24.33;94.11;100900.66;5074012;28;45747;-79
2022/09/02 10:35:44;;;;;;;;;20.33;19.33;;;;;24.35;94.21;100901.50;5090446;27;45990;-80
2022/09/02 10:38:11;;;;;;;;;22.33;19.67;;;;;24.35;95.71;100899.69;5094685;27;45551;-80
2022/09/02 10:40:46;;;;;;;;;26.00;22.67;;;;;24.38;95.79;100899.53;5091245;27;47598;-78
2022/09/02 10:43:33;;;;;;;;;23.67;20.67;;;;;24.41;96.41;100890.44;5095322;27;45426;-79
2022/09/02 10:46:00;;;;;;;;;18.67;18.67;;;;;24.47;96.19;100884.75;5089670;27;45721;-79
2022/09/02 10:48:41;;;;;;;;;21.33;21.33;;;;;24.49;95.68;100886.44;5093114;27;45432;-80
2022/09/02 10:51:25;;;;;;;;;22.00;18.33;;;;;24.53;95.58;100887.16;5088180;27;45461;-80
2022/09/02 10:53:54;;;;;;;;;21.00;21.00;;;;;24.58;95.05;100881.56;5092065;27;45582;-80
2022/09/02 10:56:33;;;;;;;;;24.33;19.00;;;;;24.58;93.86;100876.16;5079172;27;47852;-78
2022/09/02 10:59:10;;;;;;;;;18.67;18.00;;;;;24.59;94.08;100880.59;5089459;27;45314;-84
2022/09/02 11:01:55;;;;;;;;;21.00;19.33;;;;;24.53;93.42;100884.47;5095907;27;45493;-77
2022/09/02 11:04:26;;;;;;;;;19.33;19.33;;;;;24.49;94.95;100883.72;5091731;27;45370;-76
2022/09/02 11:06:55;;;;;;;;;19.67;19.67;;;;;24.44;96.16;100874.97;5111064;27;48411;-81
2022/09/02 11:09:48;;;;;;;;;19.33;17.67;;;;;24.36;94.34;100879.84;5081007;27;45373;-80
2022/09/02 11:12:15;;;;;;;;;21.00;21.00;;;;;24.27;95.18;100877.53;5091359;27;45530;-80
2022/09/02 11:14:47;;;;;;;;;18.67;18.67;;;;;24.19;93.66;100874.31;5097109;27;45420;-78
2022/09/02 11:17:23;;;;;;;;;23.33;21.33;;;;;24.09;94.22;100870.28;5097091;27;46715;-76
2022/09/02 11:20:02;;;;;;;;;23.33;20.33;;;;;24.08;96.43;100871.22;5097776;27;45512;-77